KOLV/OLV METAR and TAF weather

Enter ICAO airport designator
Station Type Date Time Source
KOLV METAR 2020/01/21 09:35 UTC NOAA

KOLV 210935Z AUTO 02008KT 10SM OVC023 M04/M08 A3059 RMK A01


Station Type Date Time Source
KOLV Decoded METAR 2020/01/21 09:35 UTC NOAA

Olive Branch, Olive Branch Airport, MS, United States (KOLV) 34-58-44N 089-47-13W
Jan 21, 2020 - 04:35 AM EST / 2020.01.21 0935 UTC
Wind: from the NNE (020 degrees) at 9 MPH (8 KT):0
Visibility: 10 mile(s):0
Sky conditions: overcast
Temperature: 24 F (-4 C)
Windchill: 14 F (-10 C):1
Dew Point: 17 F (-8 C)
Relative Humidity: 73%
Pressure (altimeter): 30.59 in. Hg (1035 hPa)
ob: KOLV 210935Z AUTO 02008KT 10SM OVC023 M04/M08 A3059 RMK A01
cycle: 9

Station Type Date Time Source
KOLV TAF UTC NOAA

Error!

Example: see airport list